Flight Track Log - Related Links

Times and Time Zones

All times are in EDT time to prevent confusion due to time zone crossing. See the JIA2382 flight status page for this flight to view local times or setup timezone preferences in your user account.

Time Position Orientation Groundspeed Altitude Reporting Facility
EDT Latitude Longitude Course Direction KTS MPH feet Rate Location/Type
Fri 09:36:41 AM 35.2369 -80.9392 72° East 156 180 1,800  Level Atlanta Center
Fri 09:37:49 AM 35.2925 -80.9114 22° Northeast 230 265 3,800 2,000 Climbing Atlanta Center
Fri 09:38:00 AM 35.1000 -80.7241 90° East  Level FlightAware Approximate
Fri 09:38:44 AM 35.2969 -80.8400 86° East 271 312 5,900  Level Atlanta Center
Fri 09:39:00 AM 35.1413 -80.6058 29° Northeast  Level FlightAware Approximate
Fri 09:39:44 AM 35.2922 -80.7461 93° East 283 326 8,000  Level Atlanta Center
Fri 09:40:00 AM 35.2469 -80.5332 30° Northeast  Level FlightAware Approximate
Fri 09:40:44 AM 35.2956 -80.6392 88° East 310 357 10,200  Level Atlanta Center
Fri 09:41:00 AM 35.3365 -80.4548 72° East  Level FlightAware Approximate
Fri 09:41:44 AM 35.3178 -80.5364 75° East 339 390 12,000  Level Atlanta Center
Fri 09:42:44 AM 35.3481 -80.4256 71° East 334 384 13,400 1,483 Climbing Atlanta Center
Fri 09:44:38 AM 35.4117 -80.2125 70° East 361 415 16,300 1,535 Climbing Washington Center
Fri 09:45:36 AM 35.4456 -80.0894 71° East 366 421 17,800 1,424 Climbing Washington Center
Fri 09:46:36 AM 35.4769 -79.9714 72° East 366 421 19,100 1,279 Climbing Washington Center
Fri 09:47:38 AM 35.5089 -79.8431 73° East 372 428 20,400 1,150 Climbing Washington Center
Fri 09:48:36 AM 35.5406 -79.7144 73° East 377 434 21,400 1,109 Climbing Washington Center
Fri 09:49:37 AM 35.5808 -79.5686 71° East 398 458 22,600 787 Climbing Washington Center
Fri 09:50:38 AM 35.6100 -79.4472 74° East 403 464 23,000 198 Climbing Washington Center
Fri 09:51:38 AM 35.6164 -79.3069 87° East 403 464 23,000  Level Washington Center
Fri 09:52:36 AM 35.6189 -79.1589 89° East 414 476 23,000  Level Washington Center
Fri 09:53:36 AM 35.6211 -79.0083 89° East 427 491 23,000  Level Washington Center
Fri 09:54:37 AM 35.6233 -78.8578 89° East 432 497 23,000  Level Washington Center
Fri 09:55:37 AM 35.6272 -78.7069 88° East 439 505 23,000 -992 Level Washington Center
Fri 09:56:38 AM 35.6311 -78.5539 88° East 439 505 21,000 -2,231 Descending Washington Center
Fri 09:57:38 AM 35.6308 -78.3956 90° East 439 505 18,500 -2,542 Descending Washington Center
Fri 09:58:36 AM 35.6319 -78.2600 89° East 416 479 16,000 -2,492 Descending Washington Center
Fri 09:59:36 AM 35.6325 -78.1322 90° East 394 453 13,600 -2,331 Descending Washington Center
Fri 10:00:37 AM 35.6331 -78.0069 90° East 374 430 11,300 -1,884 Descending Washington Center
Fri 10:01:37 AM 35.6353 -77.8922 89° East 352 405 9,800 -1,636 Descending Washington Center
Fri 10:02:38 AM 35.6353 -77.7872 90° East 324 373 8,000 -1,866 Descending Washington Center
Fri 10:03:36 AM 35.6350 -77.6850 90° East 308 354 6,100 -2,085 Descending Washington Center
Fri 10:04:36 AM 35.6364 -77.5958 89° East 280 322 3,900 -1,636 Descending Washington Center
Fri 10:05:37 AM 35.6378 -77.5114 89° East 259 298 2,800 -1,082 Descending Washington Center

Login

Don't have an account? Register now (free) for customized features, flight alerts, and more!